createdAt,value
2022-10-19T00:01:24.746Z,92.85
2022-10-19T00:03:56.937Z,92.90
2022-10-19T00:06:27.584Z,93.78
2022-10-19T00:08:58.402Z,93.08
2022-10-19T00:11:27.963Z,93.58
2022-10-19T00:13:58.099Z,93.40
2022-10-19T00:16:28.867Z,94.02
2022-10-19T00:18:59.593Z,93.70
2022-10-19T00:21:28.665Z,93.28
2022-10-19T00:23:57.340Z,92.66
2022-10-19T00:26:26.209Z,92.68
2022-10-19T00:28:55.684Z,92.95
2022-10-19T00:31:25.105Z,93.00
2022-10-19T00:33:54.799Z,92.77
2022-10-19T00:36:26.587Z,92.22
2022-10-19T00:38:56.151Z,92.44
2022-10-19T00:41:27.260Z,90.77
2022-10-19T00:43:58.488Z,91.55
2022-10-19T00:46:28.973Z,90.19
2022-10-19T00:49:01.530Z,90.18
2022-10-19T00:51:34.685Z,90.07
2022-10-19T00:54:05.767Z,89.85
2022-10-19T00:56:35.216Z,89.72
2022-10-19T00:59:05.635Z,90.54
2022-10-19T01:01:35.288Z,90.83
2022-10-19T01:04:04.901Z,91.11
2022-10-19T01:06:36.276Z,91.00
2022-10-19T01:09:05.047Z,91.23
2022-10-19T01:11:46.152Z,90.71
2022-10-19T01:14:27.171Z,90.78
2022-10-19T01:17:03.599Z,90.54
2022-10-19T01:20:06.524Z,87.29
2022-10-19T01:22:52.399Z,87.17
2022-10-19T01:25:25.721Z,87.83
2022-10-19T01:28:19.181Z,87.12
2022-10-19T01:30:54.776Z,85.94
2022-10-19T01:33:32.907Z,85.20
2022-10-19T01:36:14.421Z,85.93
2022-10-19T01:38:51.843Z,86.67
2022-10-19T01:41:27.211Z,86.57
2022-10-19T01:44:00.946Z,86.45
2022-10-19T01:46:37.516Z,85.92
2022-10-19T01:49:11.370Z,86.18
2022-10-19T01:51:44.986Z,86.79
2022-10-19T01:54:16.672Z,87.39
2022-10-19T01:56:48.855Z,88.14
2022-10-19T01:59:20.489Z,89.58
2022-10-19T02:01:53.678Z,90.03
2022-10-19T02:04:25.020Z,90.62
2022-10-19T02:06:55.105Z,91.51
2022-10-19T02:09:23.768Z,91.99
2022-10-19T02:11:57.763Z,92.51
2022-10-19T02:14:31.744Z,92.97
2022-10-19T02:17:05.504Z,93.48
2022-10-19T02:19:34.294Z,93.93
2022-10-19T02:22:03.487Z,93.39
2022-10-19T02:24:32.108Z,94.04
2022-10-19T02:27:01.840Z,94.57
2022-10-19T02:29:30.357Z,93.59
2022-10-19T02:31:58.864Z,93.74
2022-10-19T02:34:29.060Z,92.81
2022-10-19T02:36:57.877Z,92.71
2022-10-19T02:39:26.790Z,92.75
2022-10-19T02:42:00.145Z,92.34
2022-10-19T02:44:32.795Z,92.31
2022-10-19T02:47:06.782Z,92.60
2022-10-19T02:49:38.777Z,91.59
2022-10-19T02:52:09.404Z,91.32
2022-10-19T02:54:38.753Z,91.63
2022-10-19T02:57:17.312Z,92.33
2022-10-19T02:59:45.879Z,92.78
2022-10-19T03:02:14.779Z,92.45
2022-10-19T03:07:21.063Z,92.31
2022-10-19T03:09:49.744Z,92.33
2022-10-19T03:12:18.855Z,93.41
2022-10-19T03:14:47.368Z,93.07
2022-10-19T03:17:16.024Z,93.37
2022-10-19T03:19:45.929Z,92.95
2022-10-19T03:22:14.901Z,93.83
2022-10-19T03:24:43.471Z,94.16
2022-10-19T03:27:11.997Z,94.67
2022-10-19T03:29:40.616Z,93.56
2022-10-19T03:32:09.088Z,93.73
2022-10-19T03:34:37.581Z,94.78
2022-10-19T03:37:08.856Z,94.71
2022-10-19T03:39:37.348Z,94.80
2022-10-19T03:42:05.977Z,94.08
2022-10-19T03:44:34.557Z,94.61
2022-10-19T03:47:03.059Z,94.59
2022-10-19T03:49:32.353Z,94.38
2022-10-19T03:52:01.460Z,94.52
2022-10-19T03:54:31.364Z,93.88
2022-10-19T03:57:00.053Z,94.08
2022-10-19T03:59:28.637Z,94.81
2022-10-19T04:01:57.103Z,94.95
2022-10-19T04:04:25.893Z,95.11
2022-10-19T04:06:54.399Z,95.95
2022-10-19T04:09:24.262Z,96.35
2022-10-19T04:11:54.748Z,96.31
2022-10-19T04:14:32.031Z,95.98
2022-10-19T04:17:01.842Z,96.03
2022-10-19T04:19:30.444Z,95.50
2022-10-19T04:21:59.341Z,95.22
2022-10-19T04:24:28.183Z,94.75
2022-10-19T04:26:58.099Z,94.34
2022-10-19T04:29:29.934Z,94.54
2022-10-19T04:31:59.744Z,94.45
2022-10-19T04:34:28.611Z,94.09
2022-10-19T04:36:59.524Z,93.73
2022-10-19T04:39:28.210Z,93.66
2022-10-19T04:41:58.151Z,94.18
2022-10-19T04:44:26.703Z,94.13
2022-10-19T04:46:55.261Z,94.24
2022-10-19T04:49:23.911Z,93.27
2022-10-19T04:51:52.408Z,93.08
2022-10-19T04:54:20.877Z,93.84
2022-10-19T04:56:50.190Z,93.62
2022-10-19T04:59:20.056Z,93.37
2022-10-19T05:01:48.517Z,93.86
2022-10-19T05:04:17.007Z,93.10
2022-10-19T05:06:45.547Z,93.11
2022-10-19T05:09:14.140Z,93.13
2022-10-19T05:11:42.638Z,92.83
2022-10-19T05:14:11.128Z,93.24
2022-10-19T05:16:41.062Z,93.84
2022-10-19T05:19:14.391Z,93.75
2022-10-19T05:21:43.466Z,93.00
2022-10-19T05:24:12.984Z,93.81
2022-10-19T05:26:41.486Z,94.00
2022-10-19T05:29:13.466Z,94.95
2022-10-19T05:31:43.375Z,97.11
2022-10-19T05:34:11.887Z,99.59
2022-10-19T05:36:40.933Z,100.00
2022-10-19T05:39:14.115Z,100.00
2022-10-19T05:41:44.893Z,100.00
2022-10-19T05:44:16.565Z,100.00
2022-10-19T05:46:47.696Z,100.00
2022-10-19T05:49:18.196Z,100.00
2022-10-19T05:51:46.776Z,100.00
2022-10-19T05:54:16.166Z,100.00
2022-10-19T05:56:45.035Z,100.00
2022-10-19T05:59:17.759Z,100.00
2022-10-19T06:01:49.061Z,100.00
2022-10-19T06:06:51.385Z,100.00
2022-10-19T06:09:20.046Z,100.00
2022-10-19T06:11:49.683Z,100.00
2022-10-19T06:14:18.311Z,100.00
2022-10-19T06:16:48.228Z,100.00
2022-10-19T06:19:16.714Z,100.00
2022-10-19T06:21:46.556Z,100.00
2022-10-19T06:24:15.464Z,100.00
2022-10-19T06:26:43.974Z,100.00
2022-10-19T06:29:12.790Z,100.00
2022-10-19T06:31:41.333Z,100.00
2022-10-19T06:34:11.285Z,100.00
2022-10-19T06:36:39.847Z,100.00
2022-10-19T06:39:08.463Z,100.00
2022-10-19T06:41:37.084Z,100.00
2022-10-19T06:44:05.638Z,100.00
2022-10-19T06:46:34.164Z,100.00
2022-10-19T06:49:03.645Z,100.00
2022-10-19T06:51:34.202Z,100.00
2022-10-19T06:54:02.884Z,100.00
2022-10-19T06:56:31.488Z,100.00
2022-10-19T06:59:00.357Z,100.00
2022-10-19T07:01:29.272Z,99.58
2022-10-19T07:03:57.833Z,100.00
2022-10-19T07:06:28.439Z,100.00
2022-10-19T07:08:58.452Z,100.00
2022-10-19T07:11:26.943Z,99.92
2022-10-19T07:13:55.703Z,100.00
2022-10-19T07:16:24.640Z,99.00
2022-10-19T07:18:54.370Z,99.73
2022-10-19T07:21:24.384Z,98.88
2022-10-19T07:23:53.114Z,99.36
2022-10-19T07:26:26.809Z,98.81
2022-10-19T07:28:57.556Z,99.21
2022-10-19T07:31:27.381Z,99.03
2022-10-19T07:33:56.614Z,99.02
2022-10-19T07:36:26.677Z,98.53
2022-10-19T07:38:56.038Z,99.04
2022-10-19T07:41:26.897Z,97.94
2022-10-19T07:43:57.826Z,98.01
2022-10-19T07:46:29.249Z,97.47
2022-10-19T07:48:58.152Z,97.38
2022-10-19T07:54:01.323Z,97.70
2022-10-19T07:56:31.839Z,98.30
2022-10-19T07:59:01.942Z,98.62
2022-10-19T08:01:32.836Z,98.31
2022-10-19T08:06:51.403Z,98.33
2022-10-19T08:09:47.180Z,97.88
2022-10-19T08:12:14.611Z,98.48
2022-10-19T08:14:43.863Z,98.59
2022-10-19T08:17:16.783Z,98.41
2022-10-19T08:19:45.617Z,98.72
2022-10-19T08:22:14.225Z,100.00
2022-10-19T08:24:42.751Z,100.00
2022-10-19T08:27:12.750Z,100.00
2022-10-19T08:29:41.500Z,100.00
2022-10-19T08:32:10.379Z,100.00
2022-10-19T08:34:39.206Z,100.00
2022-10-19T08:37:19.734Z,100.00
2022-10-19T08:39:56.335Z,100.00
2022-10-19T08:42:33.045Z,100.00
2022-10-19T08:45:35.100Z,100.00
2022-10-19T08:48:24.081Z,100.00
2022-10-19T08:50:53.694Z,100.00
2022-10-19T08:53:28.722Z,100.00
2022-10-19T08:56:12.449Z,100.00
2022-10-19T08:59:03.715Z,97.70
2022-10-19T09:01:40.815Z,96.46
2022-10-19T09:04:16.455Z,97.64
2022-10-19T09:06:52.670Z,94.65
2022-10-19T09:09:22.263Z,96.12
2022-10-19T09:11:56.671Z,94.43
2022-10-19T09:14:32.683Z,95.74
2022-10-19T09:17:05.898Z,94.11
2022-10-19T09:19:34.680Z,94.13
2022-10-19T09:22:06.386Z,92.64
2022-10-19T09:24:43.905Z,92.87
2022-10-19T09:27:20.132Z,90.46
2022-10-19T09:29:55.138Z,89.28
2022-10-19T09:32:27.715Z,90.26
2022-10-19T09:35:01.284Z,89.64
2022-10-19T09:40:06.726Z,88.90
2022-10-19T09:42:37.096Z,88.70
2022-10-19T09:45:18.264Z,88.22
2022-10-19T09:47:49.594Z,86.44
2022-10-19T09:50:21.375Z,86.36
2022-10-19T09:52:51.258Z,86.93
2022-10-19T09:55:27.780Z,86.63
2022-10-19T09:58:02.276Z,85.51
2022-10-19T10:00:42.288Z,82.78
2022-10-19T10:03:25.452Z,80.39
2022-10-19T10:05:54.989Z,76.39
2022-10-19T10:08:27.068Z,76.55
2022-10-19T10:11:04.677Z,76.88
2022-10-19T10:13:38.636Z,77.44
2022-10-19T10:16:12.044Z,77.58
2022-10-19T10:18:52.472Z,77.42
2022-10-19T10:21:26.510Z,74.40
2022-10-19T10:24:05.371Z,72.16
2022-10-19T10:26:39.312Z,69.90
2022-10-19T10:29:19.704Z,67.08
2022-10-19T10:31:53.006Z,66.74
2022-10-19T10:34:49.390Z,63.82
2022-10-19T10:37:23.017Z,58.98
2022-10-19T10:39:53.862Z,57.09
2022-10-19T10:42:29.598Z,56.10
2022-10-19T10:44:58.653Z,56.89
2022-10-19T10:47:30.701Z,57.15
2022-10-19T10:50:02.859Z,55.88
2022-10-19T10:52:32.402Z,55.95
2022-10-19T10:55:03.721Z,55.45
2022-10-19T10:57:36.685Z,56.29
2022-10-19T11:00:11.459Z,58.03
2022-10-19T11:02:49.221Z,56.68
2022-10-19T11:05:23.843Z,56.22
2022-10-19T11:07:55.723Z,57.29
2022-10-19T11:10:28.139Z,56.43
2022-10-19T11:13:05.674Z,55.09
2022-10-19T11:15:38.768Z,56.19
2022-10-19T11:18:17.520Z,54.91
2022-10-19T11:20:54.430Z,56.21
2022-10-19T11:23:37.436Z,55.86
2022-10-19T11:26:20.140Z,56.04
2022-10-19T11:29:03.793Z,56.23
2022-10-19T11:31:44.672Z,57.49
2022-10-19T11:34:31.862Z,57.09
2022-10-19T11:37:08.248Z,57.32
2022-10-19T11:39:50.684Z,58.58
2022-10-19T11:42:25.240Z,59.81
2022-10-19T11:45:05.973Z,60.85
2022-10-19T11:47:54.799Z,58.10
2022-10-19T11:50:44.136Z,59.56
2022-10-19T11:53:23.321Z,58.24
2022-10-19T11:55:59.984Z,60.55
2022-10-19T11:58:45.311Z,58.84
2022-10-19T12:01:23.946Z,61.26
2022-10-19T12:04:24.097Z,63.24
2022-10-19T12:07:04.561Z,64.06
2022-10-19T12:09:47.688Z,62.86
2022-10-19T12:12:26.021Z,62.35
2022-10-19T12:15:02.570Z,61.06
2022-10-19T12:17:34.195Z,60.34
2022-10-19T12:20:07.684Z,60.79
2022-10-19T12:22:38.845Z,62.75
2022-10-19T12:25:07.992Z,63.12
2022-10-19T12:27:38.498Z,63.83
2022-10-19T12:30:10.170Z,63.58
2022-10-19T12:32:46.716Z,64.66
2022-10-19T12:35:29.975Z,65.34
2022-10-19T12:38:08.126Z,62.90
2022-10-19T12:40:41.415Z,64.27
2022-10-19T12:43:16.449Z,60.11
2022-10-19T12:45:49.547Z,58.68
2022-10-19T12:48:21.984Z,58.22
2022-10-19T12:51:02.332Z,57.03
2022-10-19T12:53:36.221Z,56.93
2022-10-19T12:56:07.961Z,58.57
2022-10-19T12:58:47.711Z,58.38
2022-10-19T13:01:21.373Z,58.52
2022-10-19T13:03:54.035Z,58.67
2022-10-19T13:06:34.421Z,60.63
2022-10-19T13:09:07.749Z,60.83
2022-10-19T13:11:38.405Z,61.77
2022-10-19T13:14:08.864Z,63.10
2022-10-19T13:16:56.509Z,63.79
2022-10-19T13:19:25.931Z,64.26
2022-10-19T13:22:03.862Z,65.34
2022-10-19T13:24:36.975Z,63.58
2022-10-19T13:27:29.176Z,62.27
2022-10-19T13:29:57.820Z,62.77
2022-10-19T13:32:43.298Z,61.84
2022-10-19T13:35:31.784Z,60.80
2022-10-19T13:38:28.234Z,61.55
2022-10-19T13:41:11.848Z,61.12
2022-10-19T13:43:51.558Z,61.89
2022-10-19T13:46:23.576Z,61.87
2022-10-19T13:49:23.132Z,60.54
2022-10-19T13:52:04.260Z,61.16
2022-10-19T13:54:53.101Z,63.25
2022-10-19T13:57:33.269Z,62.19
2022-10-19T14:00:20.854Z,61.90
2022-10-19T14:03:27.339Z,64.29
2022-10-19T14:06:09.032Z,63.26
2022-10-19T14:09:17.004Z,59.58
2022-10-19T14:11:48.487Z,59.22
2022-10-19T14:14:21.821Z,59.33
2022-10-19T14:16:55.217Z,60.75
2022-10-19T14:19:29.852Z,60.53
2022-10-19T14:22:01.528Z,61.58
2022-10-19T14:24:32.803Z,62.58
2022-10-19T14:27:03.303Z,63.32
2022-10-19T14:29:38.399Z,62.15
2022-10-19T14:32:07.112Z,62.35
2022-10-19T14:34:40.059Z,63.72
2022-10-19T14:37:17.118Z,62.77
2022-10-19T14:39:59.139Z,62.61
2022-10-19T14:42:41.071Z,62.36
2022-10-19T14:45:21.224Z,61.91
2022-10-19T14:47:58.792Z,61.75
2022-10-19T14:50:44.590Z,61.51
2022-10-19T14:53:33.979Z,61.72
2022-10-19T14:56:07.493Z,61.36
2022-10-19T14:58:42.716Z,62.78
2022-10-19T15:01:13.461Z,63.99
2022-10-19T15:03:44.411Z,63.73
2022-10-19T15:06:20.627Z,64.71
2022-10-19T15:11:28.073Z,64.27
2022-10-19T15:13:57.937Z,64.28
2022-10-19T15:16:44.559Z,64.18
2022-10-19T15:19:19.600Z,64.19
2022-10-19T15:21:54.849Z,64.14
2022-10-19T15:24:28.268Z,64.08
2022-10-19T15:27:08.682Z,64.37
2022-10-19T15:29:38.782Z,65.39
2022-10-19T15:32:24.073Z,65.14
2022-10-19T15:34:52.969Z,66.09
2022-10-19T15:37:24.359Z,66.61
2022-10-19T15:39:53.650Z,67.22
2022-10-19T15:42:38.823Z,68.08
2022-10-19T15:45:32.724Z,68.72
2022-10-19T15:48:49.945Z,68.67
2022-10-19T15:51:47.547Z,69.63
2022-10-19T15:54:18.258Z,71.04
2022-10-19T15:56:48.550Z,72.08
2022-10-19T15:59:23.934Z,72.08
2022-10-19T16:01:53.792Z,73.57
2022-10-19T16:04:26.114Z,74.76
2022-10-19T16:06:54.674Z,75.11
2022-10-19T16:09:23.325Z,75.45
2022-10-19T16:11:56.796Z,75.17
2022-10-19T16:14:26.495Z,76.07
2022-10-19T16:16:59.520Z,76.03
2022-10-19T16:19:29.731Z,76.73
2022-10-19T16:21:58.261Z,76.53
2022-10-19T16:24:26.829Z,78.01
2022-10-19T16:26:55.356Z,78.18
2022-10-19T16:29:28.222Z,77.93
2022-10-19T16:31:57.753Z,78.70
2022-10-19T16:34:26.487Z,79.05
2022-10-19T16:36:56.374Z,79.82
2022-10-19T16:39:25.759Z,80.04
2022-10-19T16:41:54.323Z,81.00
2022-10-19T16:44:22.866Z,80.71
2022-10-19T16:46:51.509Z,80.88
2022-10-19T16:49:20.760Z,80.75
2022-10-19T16:51:51.952Z,81.40
2022-10-19T16:54:26.519Z,82.03
2022-10-19T16:56:55.713Z,82.12
2022-10-19T16:59:24.330Z,82.39
2022-10-19T17:01:53.894Z,82.60
2022-10-19T17:04:22.757Z,82.89
2022-10-19T17:06:51.256Z,83.41
2022-10-19T17:12:10.483Z,83.16
2022-10-19T17:14:40.897Z,83.69
2022-10-19T17:17:10.756Z,83.71
2022-10-19T17:19:39.425Z,84.40
2022-10-19T17:22:07.954Z,84.13
2022-10-19T17:24:37.567Z,84.51
2022-10-19T17:27:06.267Z,84.69
2022-10-19T17:29:36.716Z,85.16
2022-10-19T17:32:05.395Z,85.77
2022-10-19T17:34:33.924Z,86.05
2022-10-19T17:37:02.548Z,86.35
2022-10-19T17:39:31.204Z,85.96
2022-10-19T17:42:02.116Z,86.51
2022-10-19T17:44:32.034Z,86.45
2022-10-19T17:47:02.295Z,86.77
2022-10-19T17:49:30.853Z,86.91
2022-10-19T17:51:59.690Z,87.79
2022-10-19T17:54:28.346Z,87.55
2022-10-19T17:56:57.096Z,87.61
2022-10-19T17:59:34.930Z,87.46
2022-10-19T18:02:11.680Z,86.84
2022-10-19T18:04:40.507Z,87.10
2022-10-19T18:07:09.181Z,86.70
2022-10-19T18:09:37.959Z,86.53
2022-10-19T18:12:07.509Z,86.60
2022-10-19T18:14:36.204Z,86.24
2022-10-19T18:17:05.153Z,86.03
2022-10-19T18:19:35.044Z,85.94
2022-10-19T18:22:04.043Z,85.28
2022-10-19T18:24:34.674Z,85.62
2022-10-19T18:27:03.171Z,85.20
2022-10-19T18:29:31.788Z,85.60
2022-10-19T18:32:01.514Z,85.50
2022-10-19T18:34:34.916Z,84.94
2022-10-19T18:37:03.417Z,85.09
2022-10-19T18:39:31.991Z,85.32
2022-10-19T18:42:00.710Z,85.20
2022-10-19T18:44:32.513Z,85.45
2022-10-19T18:47:02.104Z,85.95
2022-10-19T18:49:30.880Z,86.58
2022-10-19T18:52:00.875Z,87.64
2022-10-19T18:54:29.485Z,87.90
2022-10-19T18:56:58.190Z,87.82
2022-10-19T19:01:56.298Z,88.55
2022-10-19T19:04:25.160Z,89.50
2022-10-19T19:06:53.837Z,90.66
2022-10-19T19:09:23.742Z,91.42
2022-10-19T19:11:54.286Z,92.84
2022-10-19T19:14:22.903Z,93.23
2022-10-19T19:16:51.620Z,92.56
2022-10-19T19:19:20.767Z,92.37
2022-10-19T19:21:49.933Z,92.84
2022-10-19T19:24:20.787Z,92.11
2022-10-19T19:26:52.811Z,92.11
2022-10-19T19:29:23.158Z,91.45
2022-10-19T19:31:53.412Z,91.36
2022-10-19T19:34:22.039Z,91.15
2022-10-19T19:36:50.755Z,90.00
2022-10-19T19:39:20.974Z,89.71
2022-10-19T19:41:51.072Z,90.07
2022-10-19T19:44:20.245Z,89.90
2022-10-19T19:46:49.087Z,89.35
2022-10-19T19:49:17.895Z,89.15
2022-10-19T19:51:46.506Z,89.58
2022-10-19T19:54:15.024Z,88.83
2022-10-19T19:56:43.675Z,89.52
2022-10-19T19:59:14.201Z,89.86
2022-10-19T20:01:42.998Z,90.03
2022-10-19T20:04:12.549Z,90.10
2022-10-19T20:06:42.984Z,89.66
2022-10-19T20:09:11.905Z,89.85
2022-10-19T20:11:42.669Z,89.56
2022-10-19T20:14:13.268Z,89.65
2022-10-19T20:16:42.250Z,89.63
2022-10-19T20:19:12.623Z,89.33
2022-10-19T20:21:42.209Z,89.23
2022-10-19T20:24:11.756Z,89.15
2022-10-19T20:26:40.426Z,88.40
2022-10-19T20:29:09.146Z,87.76
2022-10-19T20:31:40.585Z,87.36
2022-10-19T20:34:12.309Z,87.21
2022-10-19T20:36:41.796Z,87.03
2022-10-19T20:39:10.860Z,87.07
2022-10-19T20:41:39.885Z,86.83
2022-10-19T20:44:08.739Z,86.43
2022-10-19T20:46:38.863Z,86.55
2022-10-19T20:49:07.596Z,86.37
2022-10-19T20:51:38.052Z,86.64
2022-10-19T20:54:08.775Z,86.88
2022-10-19T20:56:39.714Z,87.24
2022-10-19T20:59:10.603Z,87.31
2022-10-19T21:01:42.406Z,87.39
2022-10-19T21:04:14.437Z,87.47
2022-10-19T21:06:44.713Z,87.19
2022-10-19T21:09:17.079Z,87.94
2022-10-19T21:11:47.444Z,88.22
2022-10-19T21:14:18.044Z,88.66
2022-10-19T21:16:48.272Z,89.06
2022-10-19T21:19:19.530Z,89.50
2022-10-19T21:21:49.983Z,90.47
2022-10-19T21:24:20.504Z,90.84
2022-10-19T21:26:49.634Z,91.07
2022-10-19T21:29:19.259Z,91.35
2022-10-19T21:31:50.712Z,92.52
2022-10-19T21:34:21.444Z,93.08
2022-10-19T21:36:50.434Z,93.63
2022-10-19T21:39:19.577Z,94.33
2022-10-19T21:41:49.161Z,95.13
2022-10-19T21:44:18.888Z,95.36
2022-10-19T21:46:50.204Z,96.01
2022-10-19T21:49:19.367Z,96.88
2022-10-19T21:51:49.959Z,97.07
2022-10-19T21:54:19.989Z,98.66
2022-10-19T21:56:48.969Z,99.43
2022-10-19T21:59:17.520Z,99.66
2022-10-19T22:01:46.047Z,99.80
2022-10-19T22:04:18.124Z,100.00
2022-10-19T22:06:47.075Z,100.00
2022-10-19T22:09:17.799Z,100.00
2022-10-19T22:11:46.671Z,100.00
2022-10-19T22:14:16.396Z,100.00
2022-10-19T22:16:45.171Z,100.00
2022-10-19T22:19:15.219Z,100.00
2022-10-19T22:21:43.716Z,100.00
2022-10-19T22:24:14.560Z,100.00
2022-10-19T22:26:44.788Z,100.00
2022-10-19T22:29:13.380Z,100.00
2022-10-19T22:31:42.111Z,100.00
2022-10-19T22:34:13.466Z,100.00
2022-10-19T22:36:43.978Z,100.00
2022-10-19T22:39:13.092Z,100.00
2022-10-19T22:41:41.750Z,100.00
2022-10-19T22:44:10.476Z,100.00
2022-10-19T22:46:39.068Z,100.00
2022-10-19T22:51:43.847Z,100.00
2022-10-19T22:54:12.364Z,100.00
2022-10-19T22:56:41.123Z,100.00
2022-10-19T22:59:10.743Z,100.00
2022-10-19T23:01:39.428Z,100.00
2022-10-19T23:04:08.102Z,100.00
2022-10-19T23:06:36.648Z,100.00
2022-10-19T23:09:06.811Z,100.00
2022-10-19T23:11:35.372Z,100.00
2022-10-19T23:14:03.867Z,100.00
2022-10-19T23:16:32.651Z,100.00
2022-10-19T23:19:01.246Z,100.00
2022-10-19T23:21:29.775Z,100.00
2022-10-19T23:23:58.351Z,100.00
2022-10-19T23:26:28.335Z,100.00
2022-10-19T23:28:56.859Z,100.00
2022-10-19T23:31:28.473Z,100.00
2022-10-19T23:33:57.539Z,100.00
2022-10-19T23:36:28.065Z,100.00
2022-10-19T23:38:58.597Z,100.00
2022-10-19T23:41:28.949Z,100.00
2022-10-19T23:43:57.489Z,100.00
2022-10-19T23:46:26.266Z,100.00
2022-10-19T23:48:54.849Z,100.00
2022-10-19T23:51:23.803Z,100.00
2022-10-19T23:53:53.582Z,100.00
2022-10-19T23:56:23.555Z,100.00
2022-10-19T23:58:53.957Z,100.00
